createdAt,value
2022-08-11T00:02:15.200Z,48.10
2022-08-11T00:04:42.323Z,48.20
2022-08-11T00:07:10.017Z,48.80
2022-08-11T00:09:39.666Z,49.10
2022-08-11T00:12:12.993Z,49.80
2022-08-11T00:14:39.627Z,50.70
2022-08-11T00:17:10.763Z,51.30
2022-08-11T00:20:15.133Z,51.80
2022-08-11T00:22:26.441Z,52.10
2022-08-11T00:24:57.207Z,53.10
2022-08-11T00:27:34.068Z,53.20
2022-08-11T00:30:00.964Z,54.00
2022-08-11T00:32:28.553Z,54.20
2022-08-11T00:35:51.169Z,54.50
2022-08-11T00:37:48.208Z,54.40
2022-08-11T00:40:18.610Z,54.90
2022-08-11T00:43:10.636Z,55.70
2022-08-11T00:45:53.181Z,55.00
2022-08-11T00:48:29.675Z,55.50
2022-08-11T00:51:10.488Z,56.70
2022-08-11T00:53:39.967Z,56.60
2022-08-11T00:56:25.404Z,56.50
2022-08-11T00:59:35.555Z,57.20
2022-08-11T01:02:05.777Z,57.50
2022-08-11T01:04:55.524Z,58.30
2022-08-11T01:08:01.075Z,58.40
2022-08-11T01:10:38.653Z,58.30
2022-08-11T01:13:11.066Z,58.30
2022-08-11T01:15:59.471Z,58.30
2022-08-11T01:18:44.703Z,58.40
2022-08-11T01:21:14.154Z,58.30
2022-08-11T01:23:43.764Z,58.50
2022-08-11T01:26:29.100Z,58.50
2022-08-11T01:29:14.605Z,58.90
2022-08-11T01:31:44.296Z,58.90
2022-08-11T01:34:21.004Z,59.00
2022-08-11T01:36:48.303Z,59.30
2022-08-11T01:39:49.206Z,60.20
2022-08-11T01:42:53.502Z,59.60
2022-08-11T01:45:37.209Z,60.10
2022-08-11T01:48:08.703Z,59.90
2022-08-11T01:50:57.413Z,59.90
2022-08-11T01:53:24.022Z,60.20
2022-08-11T01:55:57.328Z,60.70
2022-08-11T01:58:43.838Z,61.20
2022-08-11T02:01:20.251Z,60.80
2022-08-11T02:03:56.052Z,61.00
2022-08-11T02:06:55.062Z,61.70
2022-08-11T02:09:24.412Z,61.90
2022-08-11T02:11:52.616Z,61.20
2022-08-11T02:14:37.512Z,61.50
2022-08-11T02:17:27.216Z,61.70
2022-08-11T02:20:31.472Z,61.40
2022-08-11T02:24:03.690Z,62.50
2022-08-11T02:26:09.647Z,62.40
2022-08-11T02:28:49.804Z,62.10
2022-08-11T02:32:15.869Z,62.10
2022-08-11T02:34:59.509Z,62.50
2022-08-11T02:37:33.034Z,62.20
2022-08-11T02:40:00.439Z,61.70
2022-08-11T02:42:32.096Z,62.20
2022-08-11T02:45:11.967Z,62.50
2022-08-11T02:48:04.335Z,62.40
2022-08-11T02:50:35.436Z,62.40
2022-08-11T02:53:14.184Z,62.10
2022-08-11T02:55:57.357Z,62.00
2022-08-11T02:58:36.898Z,61.50
2022-08-11T03:01:03.495Z,61.70
2022-08-11T03:03:34.523Z,61.50
2022-08-11T03:06:09.588Z,61.50
2022-08-11T03:08:52.381Z,61.70
2022-08-11T03:11:40.940Z,61.70
2022-08-11T03:14:33.391Z,61.40
2022-08-11T03:17:04.347Z,61.70
2022-08-11T03:19:42.826Z,62.00
2022-08-11T03:22:28.208Z,61.70
2022-08-11T03:24:57.619Z,61.70
2022-08-11T03:27:27.372Z,62.10
2022-08-11T03:30:13.015Z,62.30
2022-08-11T03:33:16.157Z,64.00
2022-08-11T03:35:54.267Z,63.10
2022-08-11T03:38:30.575Z,62.50
2022-08-11T03:42:02.512Z,63.30
2022-08-11T03:44:37.423Z,64.20
2022-08-11T03:47:07.215Z,64.40
2022-08-11T03:49:52.573Z,64.70
2022-08-11T03:52:39.606Z,63.60
2022-08-11T03:55:24.745Z,63.50
2022-08-11T03:58:14.617Z,63.60
2022-08-11T04:01:00.184Z,64.10
2022-08-11T04:03:46.887Z,64.30
2022-08-11T04:06:32.220Z,63.90
2022-08-11T04:09:18.776Z,63.30
2022-08-11T04:11:59.296Z,62.50
2022-08-11T04:14:53.450Z,62.80
2022-08-11T04:17:22.988Z,63.30
2022-08-11T04:19:54.510Z,62.70
2022-08-11T04:22:28.255Z,64.00
2022-08-11T04:25:10.578Z,64.30
2022-08-11T04:27:43.300Z,64.90
2022-08-11T04:30:14.661Z,64.70
2022-08-11T04:32:56.992Z,64.60
2022-08-11T04:35:32.739Z,64.60
2022-08-11T04:38:12.904Z,64.30
2022-08-11T04:41:17.765Z,64.00
2022-08-11T04:44:05.683Z,65.20
2022-08-11T04:46:52.183Z,66.40
2022-08-11T04:49:49.611Z,66.00
2022-08-11T04:52:38.474Z,65.70
2022-08-11T04:55:50.200Z,65.10
2022-08-11T04:58:43.225Z,65.40
2022-08-11T05:01:42.678Z,65.20
2022-08-11T05:04:47.152Z,65.70
2022-08-11T05:07:32.435Z,65.80
2022-08-11T05:10:25.288Z,65.60
2022-08-11T05:12:55.042Z,65.30
2022-08-11T05:15:49.625Z,65.30
2022-08-11T05:18:39.208Z,64.60
2022-08-11T05:21:28.662Z,64.40
2022-08-11T05:24:27.153Z,63.80
2022-08-11T05:27:14.066Z,63.50
2022-08-11T05:30:06.890Z,63.80
2022-08-11T05:33:01.476Z,63.30
2022-08-11T05:36:00.491Z,63.10
2022-08-11T05:38:51.748Z,63.00
2022-08-11T05:41:40.171Z,63.40
2022-08-11T05:44:25.558Z,63.30
2022-08-11T05:47:11.991Z,62.80
2022-08-11T05:49:58.997Z,62.50
2022-08-11T05:52:47.125Z,63.80
2022-08-11T05:55:35.090Z,63.40
2022-08-11T05:58:09.134Z,64.00
2022-08-11T06:00:42.002Z,64.00
2022-08-11T06:03:10.923Z,64.10
2022-08-11T06:05:44.115Z,63.40
2022-08-11T06:08:13.043Z,63.70
2022-08-11T06:10:41.270Z,63.50
2022-08-11T06:13:08.896Z,62.90
2022-08-11T06:15:43.971Z,62.60
2022-08-11T06:18:12.213Z,62.20
2022-08-11T06:20:49.365Z,62.60
2022-08-11T06:23:18.697Z,62.30
2022-08-11T06:25:45.453Z,63.20
2022-08-11T06:28:14.164Z,63.10
2022-08-11T06:30:44.926Z,63.50
2022-08-11T06:33:16.418Z,62.40
2022-08-11T06:35:55.705Z,62.20
2022-08-11T06:38:22.352Z,61.50
2022-08-11T06:41:08.908Z,61.60
2022-08-11T06:43:55.406Z,60.30
2022-08-11T06:46:33.125Z,59.40
2022-08-11T06:49:03.160Z,59.50
2022-08-11T06:51:32.440Z,59.20
2022-08-11T06:54:04.626Z,58.60
2022-08-11T06:57:06.673Z,59.00
2022-08-11T06:59:58.708Z,58.20
2022-08-11T07:02:39.322Z,58.60
2022-08-11T07:05:35.377Z,58.90
2022-08-11T07:08:35.807Z,59.10
2022-08-11T07:11:37.765Z,58.10
2022-08-11T07:14:24.571Z,59.10
2022-08-11T07:16:51.981Z,58.70
2022-08-11T07:19:42.724Z,58.10
2022-08-11T07:22:29.486Z,59.00
2022-08-11T07:25:19.587Z,58.90
2022-08-11T07:28:06.613Z,57.90
2022-08-11T07:30:34.857Z,58.20
2022-08-11T07:33:02.860Z,57.10
2022-08-11T07:35:29.522Z,56.90
2022-08-11T07:38:01.542Z,56.70
2022-08-11T07:40:29.884Z,57.30
2022-08-11T07:42:57.272Z,57.30
2022-08-11T07:45:43.208Z,56.90
2022-08-11T07:48:29.308Z,56.80
2022-08-11T07:51:14.887Z,55.90
2022-08-11T07:53:57.985Z,55.80
2022-08-11T07:56:45.596Z,56.10
2022-08-11T08:00:03.782Z,55.30
2022-08-11T08:02:41.367Z,56.10
2022-08-11T08:05:26.750Z,56.00
2022-08-11T08:08:12.133Z,55.00
2022-08-11T08:10:57.477Z,55.70
2022-08-11T08:13:42.513Z,55.20
2022-08-11T08:16:27.771Z,56.30
2022-08-11T08:18:54.481Z,56.00
2022-08-11T08:21:21.140Z,55.00
2022-08-11T08:23:53.752Z,54.60
2022-08-11T08:26:41.543Z,56.10
2022-08-11T08:29:27.001Z,55.90
2022-08-11T08:31:55.131Z,55.30
2022-08-11T08:34:22.481Z,54.20
2022-08-11T08:36:50.263Z,55.50
2022-08-11T08:39:21.553Z,54.60
2022-08-11T08:41:54.270Z,55.90
2022-08-11T08:44:37.908Z,54.00
2022-08-11T08:47:07.849Z,54.00
2022-08-11T08:49:40.391Z,53.50
2022-08-11T08:52:33.437Z,54.30
2022-08-11T08:54:56.947Z,54.40
2022-08-11T08:57:24.010Z,53.30
2022-08-11T08:59:51.530Z,53.90
2022-08-11T09:02:33.646Z,52.80
2022-08-11T09:05:03.599Z,53.00
2022-08-11T09:07:39.641Z,53.30
2022-08-11T09:10:08.226Z,54.50
2022-08-11T09:12:38.267Z,53.00
2022-08-11T09:15:06.300Z,53.90
2022-08-11T09:17:39.515Z,54.00
2022-08-11T09:20:07.998Z,52.90
2022-08-11T09:23:24.244Z,55.20
2022-08-11T09:26:00.547Z,53.80
2022-08-11T09:28:29.544Z,53.60
2022-08-11T09:30:57.057Z,53.20
2022-08-11T09:33:24.841Z,54.20
2022-08-11T09:35:52.187Z,53.80
2022-08-11T09:38:38.446Z,53.60
2022-08-11T09:41:06.681Z,52.80
2022-08-11T09:43:52.360Z,52.60
2022-08-11T09:46:24.186Z,51.70
2022-08-11T09:48:53.670Z,53.10
2022-08-11T09:51:21.217Z,52.40
2022-08-11T09:54:02.807Z,51.80
2022-08-11T09:56:49.984Z,52.10
2022-08-11T09:59:18.068Z,51.50
2022-08-11T10:01:49.382Z,52.40
2022-08-11T10:04:17.573Z,51.00
2022-08-11T10:07:05.401Z,52.00
2022-08-11T10:09:50.672Z,51.60
2022-08-11T10:12:37.226Z,51.70
2022-08-11T10:15:24.005Z,51.20
2022-08-11T10:18:12.210Z,52.60
2022-08-11T10:20:39.592Z,51.70
2022-08-11T10:23:26.701Z,51.50
2022-08-11T10:26:12.131Z,51.30
2022-08-11T10:28:55.892Z,50.30
2022-08-11T10:31:57.485Z,50.80
2022-08-11T10:34:27.363Z,51.50
2022-08-11T10:36:56.311Z,51.00
2022-08-11T10:39:23.116Z,51.70
2022-08-11T10:42:14.293Z,51.50
2022-08-11T10:44:50.467Z,51.70
2022-08-11T10:47:35.370Z,50.50
2022-08-11T10:50:26.990Z,50.30
2022-08-11T10:53:13.286Z,51.70
2022-08-11T10:56:00.826Z,51.00
2022-08-11T10:58:46.468Z,51.20
2022-08-11T11:01:14.751Z,49.10
2022-08-11T11:03:42.482Z,50.60
2022-08-11T11:06:28.273Z,49.60
2022-08-11T11:09:03.791Z,50.20
2022-08-11T11:11:52.847Z,50.50
2022-08-11T11:14:45.784Z,50.50
2022-08-11T11:17:14.095Z,50.30
2022-08-11T11:19:41.541Z,50.20
2022-08-11T11:22:28.993Z,49.40
2022-08-11T11:25:31.290Z,49.10
2022-08-11T11:28:00.570Z,49.80
2022-08-11T11:30:32.733Z,48.70
2022-08-11T11:33:16.723Z,48.80
2022-08-11T11:35:52.066Z,48.90
2022-08-11T11:38:18.949Z,49.30
2022-08-11T11:41:05.653Z,48.70
2022-08-11T11:43:34.258Z,48.60
2022-08-11T11:46:02.136Z,48.70
2022-08-11T11:48:32.284Z,49.40
2022-08-11T11:51:00.030Z,48.60
2022-08-11T11:53:26.914Z,49.30
2022-08-11T11:55:53.674Z,48.50
2022-08-11T11:58:39.679Z,47.90
2022-08-11T12:01:20.876Z,49.40
2022-08-11T12:03:49.649Z,48.10
2022-08-11T12:06:17.677Z,48.30
2022-08-11T12:08:44.831Z,47.90
2022-08-11T12:11:31.040Z,48.00
2022-08-11T12:13:59.159Z,47.40
2022-08-11T12:16:34.518Z,48.60
2022-08-11T12:19:04.067Z,47.10
2022-08-11T12:21:31.193Z,46.60
2022-08-11T12:24:17.762Z,45.70
2022-08-11T12:27:15.935Z,45.50
2022-08-11T12:29:45.350Z,46.40
2022-08-11T12:32:12.533Z,47.30
2022-08-11T12:34:39.573Z,47.00
2022-08-11T12:37:10.918Z,46.30
2022-08-11T12:40:16.574Z,46.00
2022-08-11T12:43:21.039Z,45.30
2022-08-11T12:45:52.704Z,44.40
2022-08-11T12:49:01.129Z,44.20
2022-08-11T12:52:01.542Z,44.00
2022-08-11T12:54:34.424Z,44.20
2022-08-11T12:57:24.040Z,43.40
2022-08-11T13:00:23.343Z,43.30
2022-08-11T13:03:09.104Z,44.80
2022-08-11T13:05:41.367Z,43.90
2022-08-11T13:08:15.329Z,44.50
2022-08-11T13:11:01.254Z,43.90
2022-08-11T13:13:55.553Z,44.40
2022-08-11T13:16:16.319Z,43.50
2022-08-11T13:18:44.865Z,43.30
2022-08-11T13:21:12.315Z,43.50
2022-08-11T13:23:59.441Z,42.80
2022-08-11T13:26:48.156Z,42.50
2022-08-11T13:29:19.949Z,42.40
2022-08-11T13:31:47.056Z,42.50
2022-08-11T13:34:14.856Z,42.50
2022-08-11T13:36:41.590Z,41.80
2022-08-11T13:39:09.446Z,40.60
2022-08-11T13:41:43.997Z,40.00
2022-08-11T13:44:12.989Z,40.70
2022-08-11T13:46:44.435Z,40.40
2022-08-11T13:49:11.690Z,40.10
2022-08-11T13:51:39.905Z,39.50
2022-08-11T13:54:08.954Z,39.40
2022-08-11T13:56:36.430Z,39.30
2022-08-11T13:59:04.020Z,38.90
2022-08-11T14:02:19.408Z,39.30
2022-08-11T14:04:31.245Z,38.70
2022-08-11T14:07:00.750Z,37.90
2022-08-11T14:09:28.833Z,39.00
2022-08-11T14:12:24.313Z,38.50
2022-08-11T14:14:55.921Z,37.50
2022-08-11T14:17:43.773Z,37.20
2022-08-11T14:20:14.228Z,38.20
2022-08-11T14:22:57.575Z,38.80
2022-08-11T14:25:24.914Z,39.10
2022-08-11T14:28:31.125Z,38.90
2022-08-11T14:31:01.575Z,39.30
2022-08-11T14:33:58.618Z,40.40
2022-08-11T14:36:15.796Z,39.40
2022-08-11T14:38:42.963Z,38.50
2022-08-11T14:41:29.348Z,38.90
2022-08-11T14:44:15.580Z,39.20
2022-08-11T14:47:01.844Z,39.70
2022-08-11T14:49:29.027Z,38.70
2022-08-11T14:51:57.654Z,38.00
2022-08-11T14:54:44.073Z,37.30
2022-08-11T14:57:11.339Z,37.30
2022-08-11T14:59:38.117Z,38.10
2022-08-11T15:02:31.334Z,37.60
2022-08-11T15:04:59.141Z,36.90
2022-08-11T15:07:30.247Z,36.90
2022-08-11T15:10:12.801Z,37.40
2022-08-11T15:12:43.523Z,37.20
2022-08-11T15:15:29.516Z,36.70
2022-08-11T15:18:00.410Z,36.90
2022-08-11T15:20:46.483Z,36.70
2022-08-11T15:23:31.813Z,36.20
2022-08-11T15:26:07.241Z,36.20
2022-08-11T15:28:55.515Z,37.00
2022-08-11T15:31:52.221Z,36.90
2022-08-11T15:34:40.423Z,35.80
2022-08-11T15:37:26.252Z,35.50
2022-08-11T15:40:32.078Z,36.30
2022-08-11T15:43:53.885Z,36.70
2022-08-11T15:46:29.345Z,37.30
2022-08-11T15:49:03.849Z,36.50
2022-08-11T15:51:33.316Z,36.50
2022-08-11T15:54:07.132Z,35.00
2022-08-11T15:56:37.082Z,34.80
2022-08-11T15:59:43.144Z,33.30
2022-08-11T16:02:27.994Z,33.30
2022-08-11T16:04:55.336Z,33.80
2022-08-11T16:07:27.067Z,34.40
2022-08-11T16:10:00.155Z,35.00
2022-08-11T16:12:30.205Z,35.20
2022-08-11T16:15:20.344Z,35.90
2022-08-11T16:17:49.997Z,36.50
2022-08-11T16:20:20.527Z,36.10
2022-08-11T16:22:55.245Z,36.00
2022-08-11T16:27:06.062Z,35.30
2022-08-11T16:28:15.028Z,34.20
2022-08-11T16:30:43.164Z,32.70
2022-08-11T16:33:48.773Z,32.80
2022-08-11T16:36:16.452Z,32.40
2022-08-11T16:38:43.285Z,32.50
2022-08-11T16:41:11.850Z,32.50
2022-08-11T16:44:07.565Z,32.60
2022-08-11T16:46:54.873Z,33.00
2022-08-11T16:49:34.778Z,32.80
2022-08-11T16:52:03.935Z,32.30
2022-08-11T16:54:32.492Z,32.10
2022-08-11T16:57:20.675Z,32.10
2022-08-11T16:59:49.109Z,31.40
2022-08-11T17:02:34.638Z,31.00
2022-08-11T17:05:21.226Z,31.30
2022-08-11T17:08:06.970Z,31.90
2022-08-11T17:10:57.614Z,32.40
2022-08-11T17:13:31.448Z,33.00
2022-08-11T17:16:08.691Z,33.30
2022-08-11T17:18:45.489Z,33.00
2022-08-11T17:21:17.379Z,32.50
2022-08-11T17:23:52.805Z,32.30
2022-08-11T17:26:21.769Z,33.10
2022-08-11T17:28:52.072Z,32.70
2022-08-11T17:31:41.668Z,33.10
2022-08-11T17:34:27.510Z,33.50
2022-08-11T17:36:54.869Z,32.70
2022-08-11T17:39:24.067Z,33.50
2022-08-11T17:42:10.449Z,33.60
2022-08-11T17:44:56.738Z,33.40
2022-08-11T17:47:42.983Z,33.30
2022-08-11T17:50:17.304Z,32.50
2022-08-11T17:53:04.246Z,32.50
2022-08-11T17:55:54.632Z,32.60
2022-08-11T17:58:40.052Z,32.80
2022-08-11T18:01:09.141Z,33.40
2022-08-11T18:03:39.577Z,34.00
2022-08-11T18:06:12.347Z,34.20
2022-08-11T18:09:02.222Z,34.60
2022-08-11T18:12:11.004Z,34.50
2022-08-11T18:14:55.353Z,34.80
2022-08-11T18:17:40.814Z,35.80
2022-08-11T18:20:26.653Z,36.40
2022-08-11T18:23:12.805Z,37.20
2022-08-11T18:26:00.869Z,38.00
2022-08-11T18:28:48.538Z,38.60
2022-08-11T18:31:34.176Z,39.40
2022-08-11T18:34:23.127Z,40.20
2022-08-11T18:37:21.799Z,41.00
2022-08-11T18:40:11.970Z,41.40
2022-08-11T18:42:59.163Z,41.50
2022-08-11T18:45:46.082Z,41.80
2022-08-11T18:48:39.493Z,41.90
2022-08-11T18:51:30.666Z,42.00
2022-08-11T18:54:25.704Z,42.30
2022-08-11T18:57:11.660Z,42.40
2022-08-11T18:59:58.799Z,42.90
2022-08-11T19:02:49.531Z,42.80
2022-08-11T19:06:35.402Z,42.70
2022-08-11T19:08:45.333Z,42.90
2022-08-11T19:11:31.546Z,43.50
2022-08-11T19:14:17.775Z,42.60
2022-08-11T19:17:04.101Z,42.70
2022-08-11T19:19:50.198Z,43.00
2022-08-11T19:22:36.255Z,42.90
2022-08-11T19:25:25.567Z,42.90
2022-08-11T19:28:12.254Z,43.00
2022-08-11T19:30:58.385Z,42.70
2022-08-11T19:33:57.283Z,42.80
2022-08-11T19:36:47.129Z,42.70
2022-08-11T19:39:32.710Z,43.00
2022-08-11T19:42:18.610Z,42.90
2022-08-11T19:45:03.754Z,43.20
2022-08-11T19:47:59.137Z,42.90
2022-08-11T19:50:58.100Z,42.90
2022-08-11T19:53:46.028Z,42.80
2022-08-11T19:56:31.681Z,43.70
2022-08-11T19:59:17.663Z,43.60
2022-08-11T20:02:13.848Z,43.20
2022-08-11T20:05:00.369Z,43.10
2022-08-11T20:07:46.468Z,43.80
2022-08-11T20:10:35.076Z,43.30
2022-08-11T20:13:21.480Z,44.00
2022-08-11T20:16:07.510Z,43.80
2022-08-11T20:18:53.967Z,43.90
2022-08-11T20:21:39.612Z,44.20
2022-08-11T20:24:25.194Z,44.20
2022-08-11T20:27:18.793Z,44.30
2022-08-11T20:30:10.925Z,44.90
2022-08-11T20:32:57.042Z,44.50
2022-08-11T20:35:42.559Z,44.70
2022-08-11T20:38:27.705Z,44.50
2022-08-11T20:41:16.194Z,44.60
2022-08-11T20:44:07.932Z,44.70
2022-08-11T20:46:56.962Z,45.00
2022-08-11T20:49:53.691Z,45.10
2022-08-11T20:52:44.192Z,45.20
2022-08-11T20:55:46.420Z,45.20
2022-08-11T20:59:11.846Z,45.20
2022-08-11T21:01:44.559Z,45.40
2022-08-11T21:04:31.015Z,45.40
2022-08-11T21:07:28.324Z,45.40
2022-08-11T21:10:19.244Z,45.90
2022-08-11T21:13:26.044Z,45.70
2022-08-11T21:16:26.187Z,45.50
2022-08-11T21:19:55.133Z,45.70
2022-08-11T21:22:28.457Z,45.80
2022-08-11T21:25:15.074Z,46.00
2022-08-11T21:28:00.691Z,45.70
2022-08-11T21:30:47.262Z,45.80
2022-08-11T21:33:32.493Z,46.00
2022-08-11T21:36:18.120Z,45.80
2022-08-11T21:39:04.775Z,46.00
2022-08-11T21:41:50.277Z,46.20
2022-08-11T21:44:36.374Z,46.00
2022-08-11T21:47:42.942Z,46.30
2022-08-11T21:50:27.845Z,46.30
2022-08-11T21:53:14.221Z,46.80
2022-08-11T21:55:59.917Z,46.60
2022-08-11T21:58:45.042Z,46.90
2022-08-11T22:01:30.768Z,46.90
2022-08-11T22:04:19.959Z,46.90
2022-08-11T22:07:05.617Z,46.40
2022-08-11T22:09:50.812Z,46.70
2022-08-11T22:12:38.750Z,46.80
2022-08-11T22:15:26.729Z,46.70
2022-08-11T22:18:11.917Z,46.60
2022-08-11T22:20:58.500Z,46.70
2022-08-11T22:23:44.189Z,47.00
2022-08-11T22:26:31.138Z,47.00
2022-08-11T22:29:17.281Z,46.90
2022-08-11T22:32:02.675Z,47.00
2022-08-11T22:34:53.006Z,47.20
2022-08-11T22:37:40.125Z,48.30
2022-08-11T22:40:26.691Z,49.50
2022-08-11T22:43:11.635Z,50.30
2022-08-11T22:45:56.698Z,51.20
2022-08-11T22:48:43.364Z,51.90
2022-08-11T22:51:28.973Z,51.60
2022-08-11T22:54:15.274Z,51.40
2022-08-11T22:57:00.307Z,51.50
2022-08-11T22:59:46.167Z,52.00
2022-08-11T23:02:31.747Z,52.00
2022-08-11T23:05:17.903Z,52.10
2022-08-11T23:08:03.638Z,52.10
2022-08-11T23:10:49.277Z,53.40
2022-08-11T23:13:34.881Z,54.20
2022-08-11T23:16:20.723Z,54.10
2022-08-11T23:19:06.867Z,54.50
2022-08-11T23:21:53.497Z,54.50
2022-08-11T23:24:39.344Z,54.80
2022-08-11T23:27:25.016Z,55.30
2022-08-11T23:30:12.829Z,55.10
2022-08-11T23:32:58.204Z,54.90
2022-08-11T23:35:53.628Z,54.80
2022-08-11T23:38:44.110Z,54.80
2022-08-11T23:41:32.337Z,55.50
2022-08-11T23:44:18.562Z,55.80
2022-08-11T23:47:04.709Z,56.20
2022-08-11T23:49:50.457Z,56.30
2022-08-11T23:52:36.111Z,57.30
2022-08-11T23:55:22.061Z,57.30
2022-08-11T23:58:07.595Z,58.40
